»·PEaware :: N6870P KSNA-KBUR

N6870P :: KSNA-KBUR

FLIGHT INFORMATION

Flight Status: Arrived
Operator: Privately registered:
United States
More flights under this callsign
Pilot: Larry J. (31147)
Aircraft: PIPER PA-24 COMMANCHE
(PA24)
More flights by this aircraft type
Origin: KSNA John Wayne-Orange Co
United States
Destination: KBUR Bob Hope-Burbank
United States
More flights between these airports :: More routes between these airports
Route: +SLI V23 POPPR SMO125R SMO SMO311R SILEX
File this flight plan on PilotEdge
Remarks: TEC route CSTP1
Altitude:
(Current/Filed)
4,000ft
Speed:
(Current/Filed)
125kts
Departed: 13-Oct-20 08:36 AM
Arrived: 13-Oct-20 09:09 AM
Distance/Time
Traveled:
40nm/0:33
Distance/Time
To Go:
Arrived

Flight Plot

Page will automatically refresh every two minutes.


Map Options




Map Legend


Flown Route
Filed Route
Departure Airport
Arrival Airport
Navaid (VOR, NDB)
Fix

Horizontal Profiles

Position Reports

Time Latitude Longitude Heading Altitude Ground
Speed
13-Oct-20 08:05 33.676252 -117.871059 5 58ft 0kts
13-Oct-20 08:06 33.676374 -117.871056 357 58ft 0kts
13-Oct-20 08:07 33.676406 -117.871059 354 58ft 0kts
13-Oct-20 08:08 33.676406 -117.871059 354 58ft 0kts
13-Oct-20 08:09 33.676406 -117.871059 354 58ft 0kts
13-Oct-20 08:10 33.676406 -117.871059 354 58ft 0kts
13-Oct-20 08:11 33.676406 -117.871059 354 58ft 0kts
13-Oct-20 08:12 33.676406 -117.871059 354 58ft 0kts
13-Oct-20 08:13 33.676406 -117.871059 354 58ft 0kts
13-Oct-20 08:14 33.676406 -117.871059 354 58ft 0kts
13-Oct-20 08:21 33.676407 -117.871059 354 58ft 0kts
13-Oct-20 08:22 33.676407 -117.871059 354 58ft 0kts
13-Oct-20 08:23 33.676407 -117.871059 354 58ft 0kts
13-Oct-20 08:24 33.676407 -117.871059 354 58ft 0kts
13-Oct-20 08:25 33.676407 -117.871059 354 58ft 0kts
13-Oct-20 08:26 33.676407 -117.871059 354 58ft 0kts
13-Oct-20 08:27 33.676407 -117.871059 354 58ft 0kts
13-Oct-20 08:28 33.676429 -117.871054 26 58ft 0kts
13-Oct-20 08:29 33.676443 -117.871043 39 58ft 0kts
13-Oct-20 08:30 33.676266 -117.870574 92 58ft 4kts
13-Oct-20 08:31 33.677881 -117.868930 33 58ft 0kts
13-Oct-20 08:32 33.680677 -117.867330 77 58ft 0kts
13-Oct-20 08:33 33.681207 -117.866857 77 58ft 0kts
13-Oct-20 08:34 33.680967 -117.865860 135 58ft 19kts
13-Oct-20 08:35 33.669829 -117.873334 217 320ft 103kts
13-Oct-20 08:36 33.657192 -117.900940 239 1728ft 89kts
13-Oct-20 08:37 33.644787 -117.930874 240 3303ft 111kts
13-Oct-20 08:38 33.627952 -117.970114 240 4007ft 167kts
13-Oct-20 08:39 33.639701 -118.012043 306 3998ft 134kts
13-Oct-20 08:40 33.664878 -118.049218 310 4000ft 148kts
13-Oct-20 08:41 33.692713 -118.086716 310 3999ft 151kts
13-Oct-20 08:42 33.720608 -118.124530 309 3998ft 151kts
13-Oct-20 08:43 33.748767 -118.162392 310 3999ft 151kts
13-Oct-20 08:44 33.776284 -118.199162 312 3990ft 130kts
13-Oct-20 08:45 33.800870 -118.232845 310 4001ft 144kts
13-Oct-20 08:46 33.828183 -118.269763 310 3999ft 149kts
13-Oct-20 08:47 33.857887 -118.304949 319 3999ft 150kts
13-Oct-20 08:48 33.890185 -118.337139 319 3999ft 150kts
13-Oct-20 08:49 33.922372 -118.369212 319 3999ft 150kts
13-Oct-20 08:50 33.953229 -118.399942 319 3998ft 138kts
13-Oct-20 08:51 33.982350 -118.429198 319 3999ft 135kts
13-Oct-20 08:52 34.010884 -118.458706 312 4002ft 134kts
13-Oct-20 08:53 34.036124 -118.491868 311 3999ft 134kts
13-Oct-20 08:54 34.061418 -118.525229 311 3999ft 134kts
13-Oct-20 08:55 34.086774 -118.558536 311 3999ft 134kts
13-Oct-20 08:56 34.112429 -118.592232 311 3999ft 138kts
13-Oct-20 08:57 34.138451 -118.626421 311 3999ft 139kts
13-Oct-20 08:58 34.168151 -118.654134 350 3996ft 139kts
13-Oct-20 08:59 34.197277 -118.633910 61 3998ft 138kts
13-Oct-20 09:00 34.200869 -118.588233 89 3999ft 139kts
13-Oct-20 09:01 34.200295 -118.548032 88 3641ft 92kts
13-Oct-20 09:02 34.199996 -118.518933 88 3173ft 84kts
13-Oct-20 09:03 34.199625 -118.485133 88 2665ft 111kts
13-Oct-20 09:04 34.199060 -118.450298 88 2067ft 88kts
13-Oct-20 09:05 34.198665 -118.421193 88 1609ft 86kts
13-Oct-20 09:06 34.198252 -118.392621 89 1153ft 82kts
13-Oct-20 09:07 34.197878 -118.365522 90 724ft 61kts
13-Oct-20 09:08 34.198619 -118.360257 359 715ft 0kts
13-Oct-20 09:09 34.198704 -118.360259 359 716ft 0kts
13-Oct-20 09:10 34.199624 -118.359860 88 719ft 8kts
13-Oct-20 09:11 34.201682 -118.358945 266 725ft 3kts
13-Oct-20 09:12 34.201594 -118.359143 251 725ft 0kts

Navigation Log

Ident Type
Flight plan parsing failed, navigation log unavailable